sensor_id;sensor_type;location;lat;lon;timestamp;P1;durP1;ratioP1;P2;durP2;ratioP2
24483;SDS011;12643;51.620;7.548;2022-09-17T00:01:40;16.33;;;4.13;;
24483;SDS011;12643;51.620;7.548;2022-09-17T00:04:12;12.02;;;3.17;;
24483;SDS011;12643;51.620;7.548;2022-09-17T00:06:40;10.65;;;3.17;;
24483;SDS011;12643;51.620;7.548;2022-09-17T00:09:08;8.40;;;2.95;;
24483;SDS011;12643;51.620;7.548;2022-09-17T00:11:38;15.57;;;3.63;;
24483;SDS011;12643;51.620;7.548;2022-09-17T00:14:08;15.90;;;3.30;;
24483;SDS011;12643;51.620;7.548;2022-09-17T00:16:39;8.98;;;3.38;;
24483;SDS011;12643;51.620;7.548;2022-09-17T00:19:11;17.58;;;4.13;;
24483;SDS011;12643;51.620;7.548;2022-09-17T00:21:41;16.65;;;4.70;;
24483;SDS011;12643;51.620;7.548;2022-09-17T00:24:10;14.82;;;4.07;;
24483;SDS011;12643;51.620;7.548;2022-09-17T00:26:39;24.80;;;4.95;;
24483;SDS011;12643;51.620;7.548;2022-09-17T00:29:08;14.10;;;4.22;;
24483;SDS011;12643;51.620;7.548;2022-09-17T00:31:37;17.50;;;4.45;;
24483;SDS011;12643;51.620;7.548;2022-09-17T00:34:05;10.13;;;3.50;;
24483;SDS011;12643;51.620;7.548;2022-09-17T00:36:36;10.77;;;3.65;;
24483;SDS011;12643;51.620;7.548;2022-09-17T00:39:05;12.75;;;2.50;;
24483;SDS011;12643;51.620;7.548;2022-09-17T00:41:35;11.82;;;2.35;;
24483;SDS011;12643;51.620;7.548;2022-09-17T00:47:07;11.90;;;2.92;;
24483;SDS011;12643;51.620;7.548;2022-09-17T00:49:43;7.32;;;2.45;;
24483;SDS011;12643;51.620;7.548;2022-09-17T00:52:13;8.15;;;2.47;;
24483;SDS011;12643;51.620;7.548;2022-09-17T00:54:44;12.02;;;3.33;;
24483;SDS011;12643;51.620;7.548;2022-09-17T00:57:17;13.85;;;2.50;;
24483;SDS011;12643;51.620;7.548;2022-09-17T00:59:46;15.38;;;4.07;;
24483;SDS011;12643;51.620;7.548;2022-09-17T01:02:14;15.82;;;3.05;;
24483;SDS011;12643;51.620;7.548;2022-09-17T01:04:42;17.08;;;4.15;;
24483;SDS011;12643;51.620;7.548;2022-09-17T01:07:13;17.17;;;3.30;;
24483;SDS011;12643;51.620;7.548;2022-09-17T01:09:51;17.33;;;3.08;;
24483;SDS011;12643;51.620;7.548;2022-09-17T01:12:29;22.45;;;4.15;;
24483;SDS011;12643;51.620;7.548;2022-09-17T01:15:14;12.38;;;3.45;;
24483;SDS011;12643;51.620;7.548;2022-09-17T01:17:55;11.30;;;2.72;;
24483;SDS011;12643;51.620;7.548;2022-09-17T01:20:35;15.80;;;3.90;;
24483;SDS011;12643;51.620;7.548;2022-09-17T01:23:24;12.13;;;3.10;;
24483;SDS011;12643;51.620;7.548;2022-09-17T01:26:18;19.13;;;3.20;;
24483;SDS011;12643;51.620;7.548;2022-09-17T01:29:05;13.52;;;3.28;;
24483;SDS011;12643;51.620;7.548;2022-09-17T01:31:41;11.77;;;3.25;;
24483;SDS011;12643;51.620;7.548;2022-09-17T01:34:17;11.10;;;2.95;;
24483;SDS011;12643;51.620;7.548;2022-09-17T01:36:55;15.15;;;4.38;;
24483;SDS011;12643;51.620;7.548;2022-09-17T01:39:31;8.43;;;2.83;;
24483;SDS011;12643;51.620;7.548;2022-09-17T01:42:06;13.52;;;2.88;;
24483;SDS011;12643;51.620;7.548;2022-09-17T01:44:43;21.60;;;3.35;;
24483;SDS011;12643;51.620;7.548;2022-09-17T01:47:19;12.88;;;3.30;;
24483;SDS011;12643;51.620;7.548;2022-09-17T01:49:51;12.75;;;3.47;;
24483;SDS011;12643;51.620;7.548;2022-09-17T01:52:21;17.25;;;3.45;;
24483;SDS011;12643;51.620;7.548;2022-09-17T01:54:51;10.13;;;3.50;;
24483;SDS011;12643;51.620;7.548;2022-09-17T01:57:24;15.63;;;3.28;;
24483;SDS011;12643;51.620;7.548;2022-09-17T01:59:55;19.08;;;3.47;;
24483;SDS011;12643;51.620;7.548;2022-09-17T02:02:29;16.10;;;3.25;;
24483;SDS011;12643;51.620;7.548;2022-09-17T02:05:04;14.10;;;3.67;;
24483;SDS011;12643;51.620;7.548;2022-09-17T02:07:37;21.70;;;4.43;;
24483;SDS011;12643;51.620;7.548;2022-09-17T02:10:09;14.05;;;3.47;;
24483;SDS011;12643;51.620;7.548;2022-09-17T02:12:40;16.52;;;4.03;;
24483;SDS011;12643;51.620;7.548;2022-09-17T02:15:14;16.23;;;3.40;;
24483;SDS011;12643;51.620;7.548;2022-09-17T02:17:48;13.45;;;3.45;;
24483;SDS011;12643;51.620;7.548;2022-09-17T02:20:22;11.15;;;3.40;;
24483;SDS011;12643;51.620;7.548;2022-09-17T02:22:54;16.10;;;4.03;;
24483;SDS011;12643;51.620;7.548;2022-09-17T02:25:29;17.50;;;3.65;;
24483;SDS011;12643;51.620;7.548;2022-09-17T02:28:01;18.17;;;4.03;;
24483;SDS011;12643;51.620;7.548;2022-09-17T02:30:32;13.77;;;3.25;;
24483;SDS011;12643;51.620;7.548;2022-09-17T02:33:07;15.52;;;3.47;;
24483;SDS011;12643;51.620;7.548;2022-09-17T02:35:38;19.60;;;3.50;;
24483;SDS011;12643;51.620;7.548;2022-09-17T02:38:06;21.85;;;3.65;;
24483;SDS011;12643;51.620;7.548;2022-09-17T02:40:35;13.82;;;3.13;;
24483;SDS011;12643;51.620;7.548;2022-09-17T02:43:12;16.45;;;3.20;;
24483;SDS011;12643;51.620;7.548;2022-09-17T02:45:49;22.35;;;4.30;;
24483;SDS011;12643;51.620;7.548;2022-09-17T02:51:30;14.30;;;3.13;;
24483;SDS011;12643;51.620;7.548;2022-09-17T02:54:11;18.77;;;4.07;;
24483;SDS011;12643;51.620;7.548;2022-09-17T02:56:50;13.75;;;3.13;;
24483;SDS011;12643;51.620;7.548;2022-09-17T02:59:28;13.02;;;2.92;;
24483;SDS011;12643;51.620;7.548;2022-09-17T03:05:11;19.88;;;3.75;;
24483;SDS011;12643;51.620;7.548;2022-09-17T03:11:12;12.00;;;3.33;;
24483;SDS011;12643;51.620;7.548;2022-09-17T03:13:41;20.48;;;3.95;;
24483;SDS011;12643;51.620;7.548;2022-09-17T03:16:09;16.67;;;4.38;;
24483;SDS011;12643;51.620;7.548;2022-09-17T03:18:39;20.88;;;4.15;;
24483;SDS011;12643;51.620;7.548;2022-09-17T03:21:15;28.75;;;4.90;;
24483;SDS011;12643;51.620;7.548;2022-09-17T03:23:51;23.05;;;4.82;;
24483;SDS011;12643;51.620;7.548;2022-09-17T03:26:34;19.38;;;4.43;;
24483;SDS011;12643;51.620;7.548;2022-09-17T03:29:03;16.35;;;3.65;;
24483;SDS011;12643;51.620;7.548;2022-09-17T03:31:44;35.08;;;5.20;;
24483;SDS011;12643;51.620;7.548;2022-09-17T03:34:33;21.15;;;4.47;;
24483;SDS011;12643;51.620;7.548;2022-09-17T03:37:18;19.80;;;5.03;;
24483;SDS011;12643;51.620;7.548;2022-09-17T03:39:57;24.35;;;5.88;;
24483;SDS011;12643;51.620;7.548;2022-09-17T03:42:43;19.90;;;5.55;;
24483;SDS011;12643;51.620;7.548;2022-09-17T03:45:21;20.17;;;4.82;;
24483;SDS011;12643;51.620;7.548;2022-09-17T03:47:58;25.80;;;5.00;;
24483;SDS011;12643;51.620;7.548;2022-09-17T03:50:36;23.30;;;4.65;;
24483;SDS011;12643;51.620;7.548;2022-09-17T03:53:08;25.83;;;6.10;;
24483;SDS011;12643;51.620;7.548;2022-09-17T03:55:50;21.08;;;3.78;;
24483;SDS011;12643;51.620;7.548;2022-09-17T03:58:31;16.65;;;3.67;;
24483;SDS011;12643;51.620;7.548;2022-09-17T04:01:13;23.95;;;3.45;;
24483;SDS011;12643;51.620;7.548;2022-09-17T04:03:54;17.67;;;3.53;;
24483;SDS011;12643;51.620;7.548;2022-09-17T04:06:25;20.00;;;2.97;;
24483;SDS011;12643;51.620;7.548;2022-09-17T04:09:09;12.95;;;3.08;;
24483;SDS011;12643;51.620;7.548;2022-09-17T04:11:51;18.02;;;2.78;;
24483;SDS011;12643;51.620;7.548;2022-09-17T04:17:52;17.38;;;3.38;;
24483;SDS011;12643;51.620;7.548;2022-09-17T04:20:47;23.60;;;3.35;;
24483;SDS011;12643;51.620;7.548;2022-09-17T04:23:23;12.00;;;3.47;;
24483;SDS011;12643;51.620;7.548;2022-09-17T04:26:09;13.27;;;2.63;;
24483;SDS011;12643;51.620;7.548;2022-09-17T04:29:22;11.52;;;2.58;;
24483;SDS011;12643;51.620;7.548;2022-09-17T04:31:55;13.88;;;3.28;;
24483;SDS011;12643;51.620;7.548;2022-09-17T04:34:24;14.38;;;3.75;;
24483;SDS011;12643;51.620;7.548;2022-09-17T04:36:52;14.85;;;3.97;;
24483;SDS011;12643;51.620;7.548;2022-09-17T04:39:20;19.73;;;3.97;;
24483;SDS011;12643;51.620;7.548;2022-09-17T04:41:49;19.88;;;3.88;;
24483;SDS011;12643;51.620;7.548;2022-09-17T04:44:17;21.75;;;3.72;;
24483;SDS011;12643;51.620;7.548;2022-09-17T04:46:45;17.40;;;4.18;;
24483;SDS011;12643;51.620;7.548;2022-09-17T04:49:14;27.52;;;5.10;;
24483;SDS011;12643;51.620;7.548;2022-09-17T04:51:44;24.27;;;4.72;;
24483;SDS011;12643;51.620;7.548;2022-09-17T04:54:12;18.13;;;4.25;;
24483;SDS011;12643;51.620;7.548;2022-09-17T04:56:40;17.35;;;3.80;;
24483;SDS011;12643;51.620;7.548;2022-09-17T04:59:08;18.60;;;4.13;;
24483;SDS011;12643;51.620;7.548;2022-09-17T05:01:36;16.92;;;3.78;;
24483;SDS011;12643;51.620;7.548;2022-09-17T05:04:04;20.52;;;4.45;;
24483;SDS011;12643;51.620;7.548;2022-09-17T05:06:33;16.85;;;3.85;;
24483;SDS011;12643;51.620;7.548;2022-09-17T05:09:04;15.55;;;3.03;;
24483;SDS011;12643;51.620;7.548;2022-09-17T05:11:33;18.42;;;3.60;;
24483;SDS011;12643;51.620;7.548;2022-09-17T05:14:01;17.58;;;4.05;;
24483;SDS011;12643;51.620;7.548;2022-09-17T05:16:29;18.00;;;3.97;;
24483;SDS011;12643;51.620;7.548;2022-09-17T05:19:02;17.67;;;3.55;;
24483;SDS011;12643;51.620;7.548;2022-09-17T05:21:30;17.65;;;4.18;;
24483;SDS011;12643;51.620;7.548;2022-09-17T05:23:59;19.45;;;4.30;;
24483;SDS011;12643;51.620;7.548;2022-09-17T05:26:29;17.35;;;4.07;;
24483;SDS011;12643;51.620;7.548;2022-09-17T05:28:58;23.70;;;4.45;;
24483;SDS011;12643;51.620;7.548;2022-09-17T05:31:26;17.10;;;4.20;;
24483;SDS011;12643;51.620;7.548;2022-09-17T05:33:56;16.38;;;3.42;;
24483;SDS011;12643;51.620;7.548;2022-09-17T05:36:24;16.75;;;3.35;;
24483;SDS011;12643;51.620;7.548;2022-09-17T06:01:19;13.82;;;3.33;;
24483;SDS011;12643;51.620;7.548;2022-09-17T06:03:46;15.15;;;3.55;;
24483;SDS011;12643;51.620;7.548;2022-09-17T06:06:14;14.63;;;2.70;;
24483;SDS011;12643;51.620;7.548;2022-09-17T06:08:42;9.93;;;2.10;;
24483;SDS011;12643;51.620;7.548;2022-09-17T06:11:10;11.45;;;2.60;;
24483;SDS011;12643;51.620;7.548;2022-09-17T06:13:39;17.00;;;3.50;;
24483;SDS011;12643;51.620;7.548;2022-09-17T06:16:08;8.23;;;2.95;;
24483;SDS011;12643;51.620;7.548;2022-09-17T06:18:39;13.70;;;2.17;;
24483;SDS011;12643;51.620;7.548;2022-09-17T06:24:56;13.20;;;2.63;;
24483;SDS011;12643;51.620;7.548;2022-09-17T06:28:01;9.80;;;1.70;;
24483;SDS011;12643;51.620;7.548;2022-09-17T06:31:09;10.40;;;1.80;;
24483;SDS011;12643;51.620;7.548;2022-09-17T06:33:39;6.07;;;1.95;;
24483;SDS011;12643;51.620;7.548;2022-09-17T06:36:08;9.88;;;1.90;;
24483;SDS011;12643;51.620;7.548;2022-09-17T06:38:37;12.73;;;2.20;;
24483;SDS011;12643;51.620;7.548;2022-09-17T06:41:05;9.63;;;2.15;;
24483;SDS011;12643;51.620;7.548;2022-09-17T06:43:33;10.57;;;2.13;;
24483;SDS011;12643;51.620;7.548;2022-09-17T06:46:02;9.05;;;1.60;;
24483;SDS011;12643;51.620;7.548;2022-09-17T06:48:33;7.82;;;1.98;;
24483;SDS011;12643;51.620;7.548;2022-09-17T06:51:05;15.43;;;2.50;;
24483;SDS011;12643;51.620;7.548;2022-09-17T06:53:34;11.00;;;2.38;;
24483;SDS011;12643;51.620;7.548;2022-09-17T06:56:03;14.25;;;2.30;;
24483;SDS011;12643;51.620;7.548;2022-09-17T06:58:33;10.25;;;2.20;;
24483;SDS011;12643;51.620;7.548;2022-09-17T07:01:02;13.90;;;2.40;;
24483;SDS011;12643;51.620;7.548;2022-09-17T07:03:31;16.17;;;3.35;;
24483;SDS011;12643;51.620;7.548;2022-09-17T07:06:00;21.13;;;3.33;;
24483;SDS011;12643;51.620;7.548;2022-09-17T07:08:30;19.98;;;3.67;;
24483;SDS011;12643;51.620;7.548;2022-09-17T07:10:58;12.53;;;3.10;;
24483;SDS011;12643;51.620;7.548;2022-09-17T07:13:27;13.90;;;3.25;;
24483;SDS011;12643;51.620;7.548;2022-09-17T07:15:55;10.13;;;3.38;;
24483;SDS011;12643;51.620;7.548;2022-09-17T07:18:25;15.18;;;3.80;;
24483;SDS011;12643;51.620;7.548;2022-09-17T07:20:55;9.07;;;2.45;;
24483;SDS011;12643;51.620;7.548;2022-09-17T07:23:26;11.70;;;3.20;;
24483;SDS011;12643;51.620;7.548;2022-09-17T07:26:00;10.73;;;2.60;;
24483;SDS011;12643;51.620;7.548;2022-09-17T07:28:31;11.38;;;2.78;;
24483;SDS011;12643;51.620;7.548;2022-09-17T07:31:07;7.07;;;2.40;;
24483;SDS011;12643;51.620;7.548;2022-09-17T07:33:39;9.13;;;3.05;;
24483;SDS011;12643;51.620;7.548;2022-09-17T07:36:26;14.02;;;2.97;;
24483;SDS011;12643;51.620;7.548;2022-09-17T07:39:21;10.80;;;3.17;;
24483;SDS011;12643;51.620;7.548;2022-09-17T07:52:31;8.32;;;1.80;;
24483;SDS011;12643;51.620;7.548;2022-09-17T07:54:59;9.18;;;2.00;;
24483;SDS011;12643;51.620;7.548;2022-09-17T07:57:28;10.35;;;1.80;;
24483;SDS011;12643;51.620;7.548;2022-09-17T07:59:56;11.88;;;2.20;;
24483;SDS011;12643;51.620;7.548;2022-09-17T08:02:24;8.80;;;2.20;;
24483;SDS011;12643;51.620;7.548;2022-09-17T08:04:53;10.70;;;2.75;;
24483;SDS011;12643;51.620;7.548;2022-09-17T08:07:24;6.68;;;1.70;;
24483;SDS011;12643;51.620;7.548;2022-09-17T08:09:53;7.03;;;1.77;;
24483;SDS011;12643;51.620;7.548;2022-09-17T08:12:21;7.88;;;1.98;;
24483;SDS011;12643;51.620;7.548;2022-09-17T08:14:50;10.02;;;1.98;;
24483;SDS011;12643;51.620;7.548;2022-09-17T08:17:18;8.82;;;1.77;;
24483;SDS011;12643;51.620;7.548;2022-09-17T08:19:46;12.73;;;2.60;;
24483;SDS011;12643;51.620;7.548;2022-09-17T08:22:16;17.50;;;2.00;;
24483;SDS011;12643;51.620;7.548;2022-09-17T08:24:49;4.90;;;1.80;;
24483;SDS011;12643;51.620;7.548;2022-09-17T08:27:17;10.80;;;2.25;;
24483;SDS011;12643;51.620;7.548;2022-09-17T08:29:45;10.35;;;1.90;;
24483;SDS011;12643;51.620;7.548;2022-09-17T08:32:13;11.75;;;2.63;;
24483;SDS011;12643;51.620;7.548;2022-09-17T08:34:41;7.28;;;2.22;;
24483;SDS011;12643;51.620;7.548;2022-09-17T08:37:09;7.18;;;2.38;;
24483;SDS011;12643;51.620;7.548;2022-09-17T08:39:38;13.02;;;2.45;;
24483;SDS011;12643;51.620;7.548;2022-09-17T08:42:09;8.80;;;1.73;;
24483;SDS011;12643;51.620;7.548;2022-09-17T08:44:44;8.38;;;1.60;;
24483;SDS011;12643;51.620;7.548;2022-09-17T08:47:14;10.73;;;2.33;;
24483;SDS011;12643;51.620;7.548;2022-09-17T08:49:51;10.25;;;2.17;;
24483;SDS011;12643;51.620;7.548;2022-09-17T08:52:31;10.88;;;2.15;;
24483;SDS011;12643;51.620;7.548;2022-09-17T08:55:23;12.13;;;2.08;;
24483;SDS011;12643;51.620;7.548;2022-09-17T08:58:06;10.18;;;1.80;;
24483;SDS011;12643;51.620;7.548;2022-09-17T09:00:49;10.73;;;1.67;;
24483;SDS011;12643;51.620;7.548;2022-09-17T09:03:25;9.77;;;2.63;;
24483;SDS011;12643;51.620;7.548;2022-09-17T09:06:05;9.50;;;1.73;;
24483;SDS011;12643;51.620;7.548;2022-09-17T09:08:35;10.52;;;1.90;;
24483;SDS011;12643;51.620;7.548;2022-09-17T09:11:10;7.07;;;1.58;;
24483;SDS011;12643;51.620;7.548;2022-09-17T09:13:43;7.90;;;1.83;;
24483;SDS011;12643;51.620;7.548;2022-09-17T09:16:15;5.35;;;1.45;;
24483;SDS011;12643;51.620;7.548;2022-09-17T09:18:45;9.43;;;1.52;;
24483;SDS011;12643;51.620;7.548;2022-09-17T09:21:20;6.80;;;1.77;;
24483;SDS011;12643;51.620;7.548;2022-09-17T09:23:53;5.70;;;1.45;;
24483;SDS011;12643;51.620;7.548;2022-09-17T09:26:28;6.45;;;1.40;;
24483;SDS011;12643;51.620;7.548;2022-09-17T09:29:09;6.53;;;1.50;;
24483;SDS011;12643;51.620;7.548;2022-09-17T09:31:47;8.13;;;1.63;;
24483;SDS011;12643;51.620;7.548;2022-09-17T09:34:28;8.95;;;1.25;;
24483;SDS011;12643;51.620;7.548;2022-09-17T09:37:04;5.55;;;1.42;;
24483;SDS011;12643;51.620;7.548;2022-09-17T09:39:40;11.40;;;1.65;;
24483;SDS011;12643;51.620;7.548;2022-09-17T09:42:10;8.73;;;1.33;;
24483;SDS011;12643;51.620;7.548;2022-09-17T09:44:46;6.90;;;1.75;;
24483;SDS011;12643;51.620;7.548;2022-09-17T09:50:26;9.30;;;1.67;;
24483;SDS011;12643;51.620;7.548;2022-09-17T09:53:03;15.23;;;1.40;;
24483;SDS011;12643;51.620;7.548;2022-09-17T09:55:44;5.47;;;1.27;;
24483;SDS011;12643;51.620;7.548;2022-09-17T09:58:39;4.57;;;0.73;;
24483;SDS011;12643;51.620;7.548;2022-09-17T10:01:15;6.57;;;1.17;;
24483;SDS011;12643;51.620;7.548;2022-09-17T10:03:45;6.95;;;1.27;;
24483;SDS011;12643;51.620;7.548;2022-09-17T10:06:14;7.60;;;1.48;;
24483;SDS011;12643;51.620;7.548;2022-09-17T10:11:35;5.38;;;1.08;;
24483;SDS011;12643;51.620;7.548;2022-09-17T10:14:14;4.72;;;1.48;;
24483;SDS011;12643;51.620;7.548;2022-09-17T10:16:52;8.10;;;1.42;;
24483;SDS011;12643;51.620;7.548;2022-09-17T10:19:38;2.95;;;1.00;;
24483;SDS011;12643;51.620;7.548;2022-09-17T10:22:17;5.28;;;1.00;;
24483;SDS011;12643;51.620;7.548;2022-09-17T10:24:50;2.75;;;1.08;;
24483;SDS011;12643;51.620;7.548;2022-09-17T10:27:20;6.35;;;1.25;;
24483;SDS011;12643;51.620;7.548;2022-09-17T10:30:00;4.45;;;1.45;;
24483;SDS011;12643;51.620;7.548;2022-09-17T10:32:40;2.00;;;1.15;;
24483;SDS011;12643;51.620;7.548;2022-09-17T10:35:23;5.90;;;1.05;;
24483;SDS011;12643;51.620;7.548;2022-09-17T10:37:53;7.78;;;1.08;;
24483;SDS011;12643;51.620;7.548;2022-09-17T10:40:25;9.00;;;1.05;;
24483;SDS011;12643;51.620;7.548;2022-09-17T10:45:44;2.10;;;0.60;;
24483;SDS011;12643;51.620;7.548;2022-09-17T10:48:26;6.88;;;1.13;;
24483;SDS011;12643;51.620;7.548;2022-09-17T10:50:57;3.35;;;0.98;;
24483;SDS011;12643;51.620;7.548;2022-09-17T10:53:27;2.97;;;0.65;;
24483;SDS011;12643;51.620;7.548;2022-09-17T10:56:02;2.90;;;1.10;;
24483;SDS011;12643;51.620;7.548;2022-09-17T10:58:43;5.40;;;0.98;;
24483;SDS011;12643;51.620;7.548;2022-09-17T11:01:23;2.05;;;0.80;;
24483;SDS011;12643;51.620;7.548;2022-09-17T11:04:09;3.05;;;0.90;;
24483;SDS011;12643;51.620;7.548;2022-09-17T11:06:59;2.25;;;0.90;;
24483;SDS011;12643;51.620;7.548;2022-09-17T11:09:48;4.97;;;0.85;;
24483;SDS011;12643;51.620;7.548;2022-09-17T11:12:27;6.18;;;0.90;;
24483;SDS011;12643;51.620;7.548;2022-09-17T11:15:05;3.25;;;1.02;;
24483;SDS011;12643;51.620;7.548;2022-09-17T11:17:50;3.63;;;1.30;;
24483;SDS011;12643;51.620;7.548;2022-09-17T11:20:40;5.50;;;1.00;;
24483;SDS011;12643;51.620;7.548;2022-09-17T11:23:29;4.10;;;0.70;;
24483;SDS011;12643;51.620;7.548;2022-09-17T11:26:22;5.93;;;0.90;;
24483;SDS011;12643;51.620;7.548;2022-09-17T11:29:00;5.05;;;1.00;;
24483;SDS011;12643;51.620;7.548;2022-09-17T11:31:36;4.22;;;1.45;;
24483;SDS011;12643;51.620;7.548;2022-09-17T11:34:26;6.60;;;0.63;;
24483;SDS011;12643;51.620;7.548;2022-09-17T11:37:03;4.78;;;0.95;;
24483;SDS011;12643;51.620;7.548;2022-09-17T11:39:36;6.72;;;1.10;;
24483;SDS011;12643;51.620;7.548;2022-09-17T11:42:11;5.35;;;1.20;;
24483;SDS011;12643;51.620;7.548;2022-09-17T11:44:46;2.08;;;0.80;;
24483;SDS011;12643;51.620;7.548;2022-09-17T11:47:21;3.78;;;1.27;;
24483;SDS011;12643;51.620;7.548;2022-09-17T11:49:57;5.13;;;0.90;;
24483;SDS011;12643;51.620;7.548;2022-09-17T11:52:35;3.47;;;0.70;;
24483;SDS011;12643;51.620;7.548;2022-09-17T11:55:17;3.92;;;0.60;;
24483;SDS011;12643;51.620;7.548;2022-09-17T11:57:49;6.18;;;0.98;;
24483;SDS011;12643;51.620;7.548;2022-09-17T12:00:19;3.13;;;0.65;;
24483;SDS011;12643;51.620;7.548;2022-09-17T12:02:50;4.03;;;0.90;;
24483;SDS011;12643;51.620;7.548;2022-09-17T12:05:21;2.83;;;0.82;;
24483;SDS011;12643;51.620;7.548;2022-09-17T12:08:02;2.10;;;0.88;;
24483;SDS011;12643;51.620;7.548;2022-09-17T12:10:39;4.50;;;1.23;;
24483;SDS011;12643;51.620;7.548;2022-09-17T12:13:19;3.13;;;0.60;;
24483;SDS011;12643;51.620;7.548;2022-09-17T12:15:56;4.35;;;0.60;;
24483;SDS011;12643;51.620;7.548;2022-09-17T12:18:41;2.22;;;0.90;;
24483;SDS011;12643;51.620;7.548;2022-09-17T12:21:18;4.63;;;1.10;;
24483;SDS011;12643;51.620;7.548;2022-09-17T12:23:53;1.65;;;0.50;;
24483;SDS011;12643;51.620;7.548;2022-09-17T12:26:30;2.38;;;0.90;;
24483;SDS011;12643;51.620;7.548;2022-09-17T12:29:09;4.90;;;1.40;;
24483;SDS011;12643;51.620;7.548;2022-09-17T12:31:46;4.32;;;1.40;;
24483;SDS011;12643;51.620;7.548;2022-09-17T12:34:31;4.65;;;1.20;;
24483;SDS011;12643;51.620;7.548;2022-09-17T12:37:09;4.13;;;1.13;;
24483;SDS011;12643;51.620;7.548;2022-09-17T12:42:40;3.88;;;0.80;;
24483;SDS011;12643;51.620;7.548;2022-09-17T12:48:22;3.83;;;0.80;;
24483;SDS011;12643;51.620;7.548;2022-09-17T12:51:20;4.72;;;0.90;;
24483;SDS011;12643;51.620;7.548;2022-09-17T12:54:06;1.75;;;0.52;;
24483;SDS011;12643;51.620;7.548;2022-09-17T12:56:44;3.40;;;0.77;;
24483;SDS011;12643;51.620;7.548;2022-09-17T12:59:20;2.83;;;0.90;;
24483;SDS011;12643;51.620;7.548;2022-09-17T13:01:53;5.22;;;0.80;;
24483;SDS011;12643;51.620;7.548;2022-09-17T13:07:33;3.65;;;1.02;;
24483;SDS011;12643;51.620;7.548;2022-09-17T13:10:47;2.58;;;0.77;;
24483;SDS011;12643;51.620;7.548;2022-09-17T13:13:34;3.13;;;1.00;;
24483;SDS011;12643;51.620;7.548;2022-09-17T13:16:08;2.78;;;1.17;;
24483;SDS011;12643;51.620;7.548;2022-09-17T13:18:41;5.28;;;1.60;;
24483;SDS011;12643;51.620;7.548;2022-09-17T13:21:16;3.60;;;1.10;;
24483;SDS011;12643;51.620;7.548;2022-09-17T13:23:49;3.78;;;1.05;;
24483;SDS011;12643;51.620;7.548;2022-09-17T13:26:20;3.03;;;0.85;;
24483;SDS011;12643;51.620;7.548;2022-09-17T13:29:05;4.00;;;0.90;;
24483;SDS011;12643;51.620;7.548;2022-09-17T13:31:48;4.63;;;1.40;;
24483;SDS011;12643;51.620;7.548;2022-09-17T13:34:26;2.78;;;1.05;;
24483;SDS011;12643;51.620;7.548;2022-09-17T13:36:55;5.25;;;1.45;;
24483;SDS011;12643;51.620;7.548;2022-09-17T13:39:36;4.25;;;1.20;;
24483;SDS011;12643;51.620;7.548;2022-09-17T13:42:08;3.75;;;1.40;;
24483;SDS011;12643;51.620;7.548;2022-09-17T13:44:50;2.22;;;0.98;;
24483;SDS011;12643;51.620;7.548;2022-09-17T13:47:28;3.88;;;1.40;;
24483;SDS011;12643;51.620;7.548;2022-09-17T13:49:58;5.00;;;1.35;;
24483;SDS011;12643;51.620;7.548;2022-09-17T13:52:32;5.75;;;1.17;;
24483;SDS011;12643;51.620;7.548;2022-09-17T13:55:03;5.78;;;1.00;;
24483;SDS011;12643;51.620;7.548;2022-09-17T13:57:33;8.40;;;1.40;;
24483;SDS011;12643;51.620;7.548;2022-09-17T14:16:00;4.70;;;1.02;;
24483;SDS011;12643;51.620;7.548;2022-09-17T14:21:33;4.97;;;1.48;;
24483;SDS011;12643;51.620;7.548;2022-09-17T14:24:01;2.85;;;1.00;;
24483;SDS011;12643;51.620;7.548;2022-09-17T14:26:48;7.22;;;1.17;;
24483;SDS011;12643;51.620;7.548;2022-09-17T14:29:32;3.72;;;1.13;;
24483;SDS011;12643;51.620;7.548;2022-09-17T14:32:16;3.50;;;1.00;;
24483;SDS011;12643;51.620;7.548;2022-09-17T14:37:23;4.07;;;1.63;;
24483;SDS011;12643;51.620;7.548;2022-09-17T14:39:53;4.57;;;1.17;;
24483;SDS011;12643;51.620;7.548;2022-09-17T14:42:23;4.38;;;1.20;;
24483;SDS011;12643;51.620;7.548;2022-09-17T14:44:58;2.70;;;0.68;;
24483;SDS011;12643;51.620;7.548;2022-09-17T14:47:41;2.22;;;0.63;;
24483;SDS011;12643;51.620;7.548;2022-09-17T14:50:19;3.22;;;0.93;;
24483;SDS011;12643;51.620;7.548;2022-09-17T14:52:49;2.25;;;0.60;;
24483;SDS011;12643;51.620;7.548;2022-09-17T14:55:19;4.93;;;1.03;;
24483;SDS011;12643;51.620;7.548;2022-09-17T14:57:52;5.38;;;1.30;;
24483;SDS011;12643;51.620;7.548;2022-09-17T15:00:22;4.35;;;1.00;;
24483;SDS011;12643;51.620;7.548;2022-09-17T15:02:56;4.93;;;0.93;;
24483;SDS011;12643;51.620;7.548;2022-09-17T15:05:25;1.30;;;0.75;;
24483;SDS011;12643;51.620;7.548;2022-09-17T15:08:06;1.70;;;1.02;;
24483;SDS011;12643;51.620;7.548;2022-09-17T15:10:45;6.15;;;1.10;;
24483;SDS011;12643;51.620;7.548;2022-09-17T15:13:18;1.60;;;0.50;;
24483;SDS011;12643;51.620;7.548;2022-09-17T15:15:54;5.85;;;1.02;;
24483;SDS011;12643;51.620;7.548;2022-09-17T15:18:31;2.78;;;0.80;;
24483;SDS011;12643;51.620;7.548;2022-09-17T15:21:09;5.05;;;1.10;;
24483;SDS011;12643;51.620;7.548;2022-09-17T15:23:47;1.80;;;0.90;;
24483;SDS011;12643;51.620;7.548;2022-09-17T15:26:19;1.92;;;1.10;;
24483;SDS011;12643;51.620;7.548;2022-09-17T15:28:59;4.80;;;1.23;;
24483;SDS011;12643;51.620;7.548;2022-09-17T15:31:34;3.92;;;1.52;;
24483;SDS011;12643;51.620;7.548;2022-09-17T15:34:04;4.15;;;1.20;;
24483;SDS011;12643;51.620;7.548;2022-09-17T15:36:32;3.92;;;1.52;;
24483;SDS011;12643;51.620;7.548;2022-09-17T15:39:06;7.45;;;2.03;;
24483;SDS011;12643;51.620;7.548;2022-09-17T15:41:56;5.13;;;2.00;;
24483;SDS011;12643;51.620;7.548;2022-09-17T15:44:25;4.63;;;1.38;;
24483;SDS011;12643;51.620;7.548;2022-09-17T15:47:17;5.50;;;1.20;;
24483;SDS011;12643;51.620;7.548;2022-09-17T15:50:11;5.40;;;1.50;;
24483;SDS011;12643;51.620;7.548;2022-09-17T15:52:40;4.80;;;1.63;;
24483;SDS011;12643;51.620;7.548;2022-09-17T16:00:30;6.07;;;1.45;;
24483;SDS011;12643;51.620;7.548;2022-09-17T16:03:00;9.20;;;1.35;;
24483;SDS011;12643;51.620;7.548;2022-09-17T16:12:19;5.68;;;2.03;;
24483;SDS011;12643;51.620;7.548;2022-09-17T16:14:55;4.63;;;1.17;;
24483;SDS011;12643;51.620;7.548;2022-09-17T16:17:28;3.92;;;1.40;;
24483;SDS011;12643;51.620;7.548;2022-09-17T16:20:04;7.57;;;1.30;;
24483;SDS011;12643;51.620;7.548;2022-09-17T16:22:41;7.05;;;1.23;;
24483;SDS011;12643;51.620;7.548;2022-09-17T16:25:13;4.97;;;1.08;;
24483;SDS011;12643;51.620;7.548;2022-09-17T16:27:47;3.90;;;1.25;;
24483;SDS011;12643;51.620;7.548;2022-09-17T16:30:17;4.68;;;0.93;;
24483;SDS011;12643;51.620;7.548;2022-09-17T16:32:46;3.33;;;1.45;;
24483;SDS011;12643;51.620;7.548;2022-09-17T16:35:17;7.50;;;1.83;;
24483;SDS011;12643;51.620;7.548;2022-09-17T16:37:49;5.30;;;1.70;;
24483;SDS011;12643;51.620;7.548;2022-09-17T16:40:20;4.32;;;1.40;;
24483;SDS011;12643;51.620;7.548;2022-09-17T16:42:54;7.03;;;1.63;;
24483;SDS011;12643;51.620;7.548;2022-09-17T16:45:25;8.38;;;1.30;;
24483;SDS011;12643;51.620;7.548;2022-09-17T16:47:55;7.50;;;1.38;;
24483;SDS011;12643;51.620;7.548;2022-09-17T16:50:25;7.33;;;1.67;;
24483;SDS011;12643;51.620;7.548;2022-09-17T16:53:04;8.43;;;1.63;;
24483;SDS011;12643;51.620;7.548;2022-09-17T16:55:34;7.10;;;1.35;;
24483;SDS011;12643;51.620;7.548;2022-09-17T16:58:04;5.88;;;1.30;;
24483;SDS011;12643;51.620;7.548;2022-09-17T17:00:32;7.43;;;1.45;;
24483;SDS011;12643;51.620;7.548;2022-09-17T17:03:01;7.50;;;1.73;;
24483;SDS011;12643;51.620;7.548;2022-09-17T17:05:34;6.50;;;2.42;;
24483;SDS011;12643;51.620;7.548;2022-09-17T17:08:20;7.68;;;2.00;;
24483;SDS011;12643;51.620;7.548;2022-09-17T17:10:53;7.35;;;2.50;;